Time;durP1;ratioP1;P1;durP2;ratioP2;P2;SDS_P1;SDS_P2;PMS_P1;PMS_P2;Temp;Humidity;BMP_temperature;BMP_pressure;BME280_temperature;BME280_humidity;BME280_pressure;Samples;Min_cycle;Max_cycle;Signal;HPM_P1;HPM_P2
2021/12/26 00:01:21;;;;;;;98.60;53.80;;;;;;;-9.84;95.57;98803.23;102242;1313;60584;-79
2021/12/26 00:03:49;;;;;;;84.90;44.30;;;;;;;-9.84;95.95;98796.02;102294;1314;61184;-78
2021/12/26 00:06:28;;;;;;;98.40;52.80;;;;;;;-9.81;96.09;98792.78;102297;1313;75802;-79
2021/12/26 00:08:58;;;;;;;94.30;52.40;;;;;;;-9.82;95.86;98792.09;102295;1313;69603;-81
2021/12/26 00:11:24;;;;;;;102.30;51.90;;;;;;;-9.86;95.68;98794.11;102349;1313;74531;-79
2021/12/26 00:13:53;;;;;;;92.90;49.40;;;;;;;-9.88;95.89;98796.84;102274;1313;60524;-79
2021/12/26 00:16:20;;;;;;;92.80;49.80;;;;;;;-9.87;95.74;98804.41;102291;1313;61124;-79
2021/12/26 00:18:47;;;;;;;81.10;44.70;;;;;;;-9.89;95.85;98803.86;102284;1313;75562;-79
2021/12/26 00:21:16;;;;;;;83.50;43.50;;;;;;;-9.86;96.17;98803.39;102068;1313;70231;-78
2021/12/26 00:23:43;;;;;;;81.60;44.80;;;;;;;-9.85;96.15;98797.73;102331;1317;73222;-81
2021/12/26 00:26:10;;;;;;;85.40;44.70;;;;;;;-9.85;96.08;98800.46;102279;1312;60499;-79
2021/12/26 00:28:37;;;;;;;83.60;43.50;;;;;;;-9.88;95.99;98802.85;102288;1313;60848;-79
2021/12/26 00:31:05;;;;;;;74.10;40.80;;;;;;;-9.91;96.03;98802.64;102351;1313;75019;-79
2021/12/26 00:33:32;;;;;;;78.00;42.70;;;;;;;-9.89;96.30;98801.98;101939;1313;70365;-79
2021/12/26 00:36:00;;;;;;;81.30;40.90;;;;;;;-9.87;96.30;98801.64;102292;1313;73553;-79
2021/12/26 00:38:28;;;;;;;80.50;42.90;;;;;;;-9.86;96.45;98802.53;102072;1317;60542;-79
2021/12/26 00:40:55;;;;;;;83.10;42.20;;;;;;;-9.84;96.51;98801.00;102291;1313;61283;-79
2021/12/26 00:43:21;;;;;;;71.30;35.00;;;;;;;-9.81;96.52;98799.67;102319;1313;74683;-78
2021/12/26 00:45:48;;;;;;;73.60;37.20;;;;;;;-9.78;96.63;98800.55;101804;1310;1002529;-78
2021/12/26 00:48:15;;;;;;;69.60;35.50;;;;;;;-9.76;96.64;98799.71;102407;1310;60621;-79
2021/12/26 00:50:43;;;;;;;68.20;35.60;;;;;;;-9.76;96.58;98795.77;102448;1310;60593;-78
2021/12/26 00:53:10;;;;;;;77.40;36.30;;;;;;;-9.71;96.90;98797.02;102371;1316;61863;-80
2021/12/26 00:55:36;;;;;;;58.30;33.00;;;;;;;-9.65;96.98;98797.75;102358;1310;74670;-80
2021/12/26 00:58:04;;;;;;;63.20;35.30;;;;;;;-9.61;97.07;98797.63;101719;1310;1003740;-79
2021/12/26 01:00:35;;;;;;;70.50;37.20;;;;;;;-9.58;96.95;98795.09;102430;1310;194393;-80
2021/12/26 01:03:04;;;;;;;69.20;35.40;;;;;;;-9.55;97.13;98791.67;102458;1310;60532;-80
2021/12/26 01:05:34;;;;;;;59.60;28.10;;;;;;;-9.52;97.05;98796.87;102273;1313;60384;-79
2021/12/26 01:08:03;;;;;;;68.30;36.20;;;;;;;-9.49;97.08;98791.56;102279;1313;74526;-80
2021/12/26 01:10:40;;;;;;;74.40;37.80;;;;;;;-9.48;97.15;98789.33;102672;1310;69687;-79
2021/12/26 01:13:21;;;;;;;70.70;34.70;;;;;;;-9.46;97.30;98787.46;102620;1316;73383;-79
2021/12/26 01:15:49;;;;;;;66.00;35.90;;;;;;;-9.46;97.25;98785.73;102684;1310;60606;-78
2021/12/26 01:18:17;;;;;;;66.70;34.80;;;;;;;-9.48;97.18;98784.19;102799;1310;60923;-78
2021/12/26 01:21:04;;;;;;;73.60;37.50;;;;;;;-9.52;97.03;98781.55;102873;1310;73672;-79
2021/12/26 01:23:33;;;;;;;68.50;36.30;;;;;;;-9.58;96.84;98779.27;102789;1310;69560;-79
2021/12/26 01:26:00;;;;;;;74.90;37.20;;;;;;;-9.64;96.79;98779.91;103177;1310;73373;-79
2021/12/26 01:28:28;;;;;;;64.00;37.80;;;;;;;-9.68;96.76;98778.99;103449;1310;60468;-78
2021/12/26 01:30:58;;;;;;;72.30;39.30;;;;;;;-9.72;96.99;98779.13;103642;1310;60913;-81
2021/12/26 01:33:26;;;;;;;70.50;38.30;;;;;;;-9.72;97.05;98779.13;102862;1310;1003029;-79
2021/12/26 01:35:54;;;;;;;73.50;39.70;;;;;;;-9.73;97.08;98776.55;103511;1310;69261;-79
2021/12/26 01:38:20;;;;;;;72.20;40.30;;;;;;;-9.73;97.14;98771.90;102723;1310;1002774;-79
2021/12/26 01:40:54;;;;;;;70.20;38.30;;;;;;;-9.75;97.15;98766.72;102504;1310;60441;-79
2021/12/26 01:43:25;;;;;;;77.10;35.50;;;;;;;-9.76;97.24;98769.11;102569;1310;62296;-78
2021/12/26 01:45:53;;;;;;;75.60;37.20;;;;;;;-9.76;97.32;98772.39;102124;1313;74501;-79
2021/12/26 01:48:21;;;;;;;69.90;35.50;;;;;;;-9.74;97.42;98769.84;102548;1310;70582;-78
2021/12/26 01:50:51;;;;;;;65.80;36.10;;;;;;;-9.73;97.46;98772.59;102516;1310;73291;-79
2021/12/26 01:53:20;;;;;;;78.20;37.50;;;;;;;-9.70;97.67;98769.52;102535;1310;61407;-79
2021/12/26 01:55:47;;;;;;;76.70;38.40;;;;;;;-9.70;97.61;98769.00;101987;1311;60871;-79
2021/12/26 01:58:18;;;;;;;80.20;41.60;;;;;;;-9.69;97.59;98765.23;101669;1310;1003771;-79
2021/12/26 02:00:49;;;;;;;77.90;38.80;;;;;;;-9.72;97.50;98765.89;102046;1317;67440;-79
2021/12/26 02:03:17;;;;;;;71.30;38.30;;;;;;;-9.72;97.64;98766.05;102414;1314;73933;-79
2021/12/26 02:05:44;;;;;;;85.10;41.70;;;;;;;-9.74;97.67;98766.73;102395;1310;61461;-79
2021/12/26 02:08:10;;;;;;;69.80;37.40;;;;;;;-9.76;97.55;98757.61;102322;1310;60940;-79
2021/12/26 02:10:37;;;;;;;72.60;38.10;;;;;;;-9.75;97.78;98759.33;102148;1313;75644;-79
2021/12/26 02:13:05;;;;;;;73.00;38.80;;;;;;;-9.73;97.83;98761.41;102206;1314;70269;-78
2021/12/26 02:15:32;;;;;;;78.80;38.40;;;;;;;-9.72;97.86;98766.06;102194;1316;73337;-79
2021/12/26 02:17:58;;;;;;;68.30;37.00;;;;;;;-9.71;97.94;98764.53;102300;1310;60617;-79
2021/12/26 02:21:21;;;;;;;68.00;38.20;;;;;;;-9.70;97.97;98765.21;102326;1310;61078;-78
2021/12/26 02:23:36;;;;;;;73.50;39.00;;;;;;;-9.70;97.96;98764.19;102253;1310;74010;-79
2021/12/26 02:28:45;;;;;;;78.70;38.70;;;;;;;-9.69;97.94;98762.64;102336;1310;74564;-79
2021/12/26 02:31:14;;;;;;;65.60;34.10;;;;;;;-9.71;97.92;98761.95;102329;1316;61117;-79
2021/12/26 02:33:40;;;;;;;75.70;37.80;;;;;;;-9.73;98.06;98756.27;102430;1310;61880;-78
2021/12/26 02:36:08;;;;;;;72.10;37.70;;;;;;;-9.73;98.11;98754.20;102304;1310;74433;-78
2021/12/26 02:38:36;;;;;;;75.10;37.30;;;;;;;-9.74;97.99;98757.97;102372;1310;70210;-78
2021/12/26 02:41:04;;;;;;;77.10;36.30;;;;;;;-9.76;98.00;98755.90;102389;1310;73360;-79
2021/12/26 02:43:32;;;;;;;71.00;36.20;;;;;;;-9.77;98.05;98758.79;102502;1310;60705;-79
2021/12/26 02:46:05;;;;;;;71.00;36.00;;;;;;;-9.79;98.03;98763.59;102780;1310;61219;-78
2021/12/26 02:48:33;;;;;;;76.30;38.40;;;;;;;-9.81;98.16;98761.33;102777;1311;1003227;-79
2021/12/26 02:51:01;;;;;;;67.20;35.50;;;;;;;-9.82;98.14;98768.36;103368;1313;68228;-78
2021/12/26 02:53:28;;;;;;;66.00;34.40;;;;;;;-9.84;98.16;98770.75;103807;1310;74470;-77
2021/12/26 02:55:58;;;;;;;71.30;34.80;;;;;;;-9.84;98.25;98771.27;102570;1317;60827;-78
2021/12/26 02:58:25;;;;;;;;;;;;;;;-9.83;98.24;98770.94;102664;1310;61321;-78
2021/12/26 03:01:02;;;;;;;62.30;31.40;;;;;;;-9.83;98.34;98764.23;102475;1310;75522;-78
2021/12/26 03:03:29;;;;;;;61.80;30.50;;;;;;;-9.82;98.42;98761.66;101816;1317;1003533;-78
2021/12/26 03:06:01;;;;;;;63.70;33.80;;;;;;;-9.81;98.53;98762.54;102173;1313;73152;-79
2021/12/26 03:08:29;;;;;;;58.80;31.70;;;;;;;-9.82;98.38;98765.79;102359;1310;61055;-78
2021/12/26 03:10:55;;;;;;;57.10;30.10;;;;;;;-9.82;98.36;98767.16;102454;1316;60891;-78
2021/12/26 03:13:22;;;;;;;61.60;32.70;;;;;;;-9.84;98.47;98769.54;102312;1310;75099;-81
2021/12/26 03:15:49;;;;;;;63.30;32.30;;;;;;;-9.86;98.42;98771.08;101630;1310;1003542;-78
2021/12/26 03:18:16;;;;;;;64.80;33.10;;;;;;;-9.89;98.37;98771.72;102336;1310;74383;-80
2021/12/26 03:20:48;;;;;;;63.30;32.40;;;;;;;-9.91;98.47;98775.66;102369;1310;60458;-78
2021/12/26 03:23:18;;;;;;;63.70;33.30;;;;;;;-9.91;98.47;98771.70;102444;1310;61152;-78
2021/12/26 03:25:45;;;;;;;59.60;33.00;;;;;;;-9.92;98.44;98771.52;101833;1310;1002999;-80
2021/12/26 03:28:14;;;;;;;61.70;32.00;;;;;;;-9.96;98.31;98773.72;102421;1310;69256;-79
2021/12/26 03:30:41;;;;;;;67.10;30.90;;;;;;;-9.97;98.42;98780.06;102275;1314;73463;-80
2021/12/26 03:33:11;;;;;;;56.30;30.70;;;;;;;-9.97;98.59;98782.47;102484;1310;60599;-78
2021/12/26 03:35:38;;;;;;;63.40;30.50;;;;;;;-9.97;98.56;98788.14;102320;1310;60877;-78
2021/12/26 03:38:08;;;;;;;60.10;30.00;;;;;;;-9.98;98.59;98793.11;102196;1314;75445;-78
2021/12/26 03:40:35;;;;;;;64.30;30.50;;;;;;;-9.98;98.62;98790.35;101680;1316;1003817;-78
2021/12/26 03:43:02;;;;;;;57.60;29.90;;;;;;;-9.99;98.67;98791.37;102356;1310;74210;-79
2021/12/26 03:45:28;;;;;;;55.60;28.40;;;;;;;-10.00;98.64;98795.67;102099;1314;60495;-78
2021/12/26 03:47:55;;;;;;;53.70;28.20;;;;;;;-10.01;98.73;98792.38;102341;1316;62196;-78
2021/12/26 03:50:23;;;;;;;54.60;28.10;;;;;;;-10.01;98.69;98797.02;102377;1310;74353;-79
2021/12/26 03:52:50;;;;;;;50.40;28.60;;;;;;;-10.01;98.93;98790.31;101918;1314;70731;-78
2021/12/26 03:55:20;;;;;;;60.40;30.50;;;;;;;-10.01;98.77;98793.06;102007;1314;74412;-78
2021/12/26 03:57:47;;;;;;;53.30;28.70;;;;;;;-10.02;98.83;98792.71;102326;1310;60545;-79
2021/12/26 04:00:14;;;;;;;55.50;29.00;;;;;;;-10.03;98.81;98794.23;102013;1314;61915;-79
2021/12/26 04:02:42;;;;;;;57.00;28.10;;;;;;;-10.04;98.83;98798.54;102172;1314;74587;-79
2021/12/26 04:05:11;;;;;;;52.90;26.10;;;;;;;-10.05;98.76;98802.14;102365;1310;70513;-78
2021/12/26 04:07:38;;;;;;;56.60;28.60;;;;;;;-10.06;98.82;98801.77;102397;1310;74338;-78
2021/12/26 04:10:06;;;;;;;59.10;28.60;;;;;;;-10.07;98.84;98801.42;102356;1310;60520;-78
2021/12/26 04:12:36;;;;;;;46.70;25.80;;;;;;;-10.08;98.86;98797.10;101165;1316;1003154;-79
2021/12/26 04:15:10;;;;;;;54.20;28.80;;;;;;;-10.10;98.78;98801.22;102384;1310;74457;-80
2021/12/26 04:17:37;;;;;;;55.70;28.40;;;;;;;-10.12;98.87;98804.63;102180;1313;69516;-79
2021/12/26 04:20:06;;;;;;;51.90;27.90;;;;;;;-10.13;98.96;98810.63;102318;1310;73579;-78
2021/12/26 04:22:33;;;;;;;54.90;28.60;;;;;;;-10.14;99.03;98810.97;102054;1313;60653;-78
2021/12/26 04:25:00;;;;;;;49.90;26.10;;;;;;;-10.14;99.05;98812.84;102351;1310;60534;-79
2021/12/26 04:27:26;;;;;;;54.60;29.20;;;;;;;-10.15;98.89;98814.20;102304;1310;74690;-79
2021/12/26 04:29:54;;;;;;;56.90;30.00;;;;;;;-10.18;98.81;98817.44;102309;1310;69881;-78
2021/12/26 04:32:21;;;;;;;57.40;28.90;;;;;;;-10.20;98.81;98821.36;102274;1310;74414;-78
2021/12/26 04:34:48;;;;;;;58.80;31.80;;;;;;;-10.22;98.94;98823.92;101578;1310;1003134;-79
2021/12/26 04:37:15;;;;;;;62.90;31.00;;;;;;;-10.25;98.75;98825.75;102462;1315;60980;-78
2021/12/26 04:39:42;;;;;;;56.80;33.40;;;;;;;-10.25;98.92;98829.87;102293;1310;73883;-79
2021/12/26 04:42:09;;;;;;;61.00;32.30;;;;;;;-10.27;98.89;98827.61;102379;1316;69329;-79
2021/12/26 04:44:35;;;;;;;60.40;34.60;;;;;;;-10.29;98.88;98831.23;102379;1310;73614;-79
2021/12/26 04:47:03;;;;;;;63.00;36.10;;;;;;;-10.32;98.89;98833.96;102429;1310;60578;-78
2021/12/26 04:49:29;;;;;;;69.70;36.80;;;;;;;-10.32;99.07;98835.83;102429;1316;61143;-79
2021/12/26 04:51:56;;;;;;;70.30;34.80;;;;;;;-10.32;99.17;98838.07;102401;1311;75509;-79
2021/12/26 04:54:22;;;;;;;70.00;36.10;;;;;;;-10.33;99.03;98840.80;102292;1316;69411;-77
2021/12/26 04:56:49;;;;;;;56.90;34.00;;;;;;;-10.34;99.05;98836.67;101886;1310;72908;-78
2021/12/26 04:59:16;;;;;;;67.60;35.80;;;;;;;-10.34;99.08;98839.94;102355;1314;60516;-79
2021/12/26 05:01:42;;;;;;;59.60;33.50;;;;;;;-10.34;99.20;98839.76;101704;1310;1003056;-79
2021/12/26 05:04:10;;;;;;;66.80;34.60;;;;;;;-10.34;99.29;98837.52;102387;1310;60600;-77
2021/12/26 05:06:37;;;;;;;62.20;34.90;;;;;;;-10.32;99.25;98840.63;102375;1310;70327;-77
2021/12/26 05:09:04;;;;;;;61.00;36.00;;;;;;;-10.31;99.33;98836.20;102396;1313;73784;-79
2021/12/26 05:11:32;;;;;;;67.70;33.60;;;;;;;-10.30;99.24;98836.55;102358;1311;61899;-79
2021/12/26 05:13:59;;;;;;;67.40;37.80;;;;;;;-10.30;99.36;98836.02;102415;1310;62164;-78
2021/12/26 05:16:26;;;;;;;67.50;38.00;;;;;;;-10.29;99.45;98836.40;102378;1310;75109;-79
2021/12/26 05:18:52;;;;;;;69.90;37.20;;;;;;;-10.28;99.46;98837.44;102092;1317;70131;-78
2021/12/26 05:21:20;;;;;;;72.00;37.20;;;;;;;-10.28;99.39;98836.58;102364;1316;60561;-78
2021/12/26 05:23:46;;;;;;;66.30;38.70;;;;;;;-10.29;99.36;98835.69;102533;1314;60459;-80
2021/12/26 05:26:13;;;;;;;72.00;37.50;;;;;;;-10.29;99.37;98841.17;102603;1310;60889;-79
2021/12/26 05:28:40;;;;;;;70.30;39.40;;;;;;;-10.29;99.51;98838.43;102335;1316;75660;-80
2021/12/26 05:31:07;;;;;;;68.60;36.40;;;;;;;-10.29;99.44;98835.02;102331;1310;69556;-80
2021/12/26 05:33:33;;;;;;;70.20;36.20;;;;;;;-10.29;99.49;98832.08;102354;1317;60522;-80
2021/12/26 05:36:00;;;;;;;65.40;36.00;;;;;;;-10.30;99.53;98833.27;102426;1310;60673;-78
2021/12/26 05:38:27;;;;;;;67.60;34.70;;;;;;;-10.30;99.48;98833.27;102089;1312;62150;-80
2021/12/26 05:40:55;;;;;;;69.00;36.80;;;;;;;-10.31;99.56;98835.50;102403;1310;74654;-79
2021/12/26 05:43:22;;;;;;;61.90;34.70;;;;;;;-10.33;99.42;98834.45;102334;1310;69388;-80
2021/12/26 05:45:49;;;;;;;64.80;35.90;;;;;;;-10.35;99.47;98833.02;101949;1313;74024;-80
2021/12/26 05:48:16;;;;;;;73.20;38.60;;;;;;;-10.37;99.57;98835.78;102547;1314;60473;-80
2021/12/26 05:50:43;;;;;;;72.60;36.70;;;;;;;-10.37;99.58;98832.17;102557;1310;61293;-80
2021/12/26 05:53:10;;;;;;;70.60;39.50;;;;;;;-10.37;99.60;98835.94;102410;1310;74798;-79
2021/12/26 05:55:37;;;;;;;73.60;40.40;;;;;;;-10.39;99.62;98836.42;102211;1313;69559;-78
2021/12/26 05:58:03;;;;;;;70.20;38.40;;;;;;;-10.40;99.57;98837.95;101270;1314;1003613;-79
2021/12/26 06:00:30;;;;;;;70.40;40.20;;;;;;;-10.41;99.62;98839.48;102341;1310;61079;-80
2021/12/26 06:02:56;;;;;;;73.70;39.40;;;;;;;-10.44;99.56;98842.36;101871;1314;60589;-79
2021/12/26 06:05:23;;;;;;;73.90;39.40;;;;;;;-10.46;99.54;98840.95;102346;1310;75517;-79
2021/12/26 06:07:49;;;;;;;75.20;38.90;;;;;;;-10.48;99.64;98835.96;102353;1310;69508;-78
2021/12/26 06:10:17;;;;;;;75.00;40.80;;;;;;;-10.48;99.74;98836.83;102338;1310;74574;-79
2021/12/26 06:12:44;;;;;;;79.40;40.90;;;;;;;-10.47;99.75;98835.98;101916;1316;60633;-78
2021/12/26 06:15:13;;;;;;;70.30;40.90;;;;;;;-10.46;99.72;98837.87;102303;1310;62200;-78
2021/12/26 06:17:39;;;;;;;72.70;41.50;;;;;;;-10.47;99.72;98842.50;101944;1314;74674;-78
2021/12/26 06:20:13;;;;;;;75.40;41.20;;;;;;;-10.47;99.70;98844.55;101662;1313;1002952;-78
2021/12/26 06:22:45;;;;;;;74.90;41.20;;;;;;;-10.47;99.63;98840.27;102330;1313;73456;-78
2021/12/26 06:25:15;;;;;;;76.20;39.70;;;;;;;-10.48;99.72;98845.42;102439;1310;61218;-78
2021/12/26 06:27:41;;;;;;;71.50;38.80;;;;;;;-10.48;99.69;98844.03;102507;1310;60377;-79
2021/12/26 06:30:09;;;;;;;66.30;36.30;;;;;;;-10.49;99.68;98841.44;102356;1310;74547;-79
2021/12/26 06:32:36;;;;;;;71.40;40.40;;;;;;;-10.50;99.68;98840.58;102564;1310;70107;-79
2021/12/26 06:35:04;;;;;;;68.20;37.50;;;;;;;-10.51;99.73;98841.23;102356;1310;73148;-79
2021/12/26 06:37:31;;;;;;;69.10;37.50;;;;;;;-10.52;99.63;98847.39;102378;1313;61203;-78
2021/12/26 06:39:59;;;;;;;72.10;38.00;;;;;;;-10.53;99.66;98850.83;102388;1314;60969;-78
2021/12/26 06:42:29;;;;;;;69.00;37.30;;;;;;;-10.53;99.65;98851.86;102396;1316;74478;-78
2021/12/26 06:44:56;;;;;;;73.10;38.20;;;;;;;-10.53;99.69;98852.72;101913;1316;69521;-78
2021/12/26 06:47:24;;;;;;;64.80;32.70;;;;;;;-10.53;99.74;98854.94;102396;1314;74632;-79
2021/12/26 06:49:51;;;;;;;66.40;37.30;;;;;;;-10.53;99.87;98857.70;102376;1310;61064;-79
2021/12/26 06:52:19;;;;;;;65.20;37.50;;;;;;;-10.52;99.74;98859.08;102394;1314;62035;-79
2021/12/26 06:54:45;;;;;;;70.20;40.90;;;;;;;-10.53;99.89;98862.84;102300;1316;74395;-79
2021/12/26 06:57:12;;;;;;;75.00;38.90;;;;;;;-10.52;99.77;98863.37;102327;1313;69235;-79
2021/12/26 06:59:39;;;;;;;74.00;38.60;;;;;;;-10.52;99.81;98867.14;102410;1310;74363;-79
2021/12/26 07:02:05;;;;;;;72.20;40.10;;;;;;;-10.50;99.82;98861.68;102315;1310;60503;-79
2021/12/26 07:04:32;;;;;;;72.60;40.90;;;;;;;-10.50;99.85;98866.49;102359;1310;60383;-79
2021/12/26 07:06:58;;;;;;;62.70;35.20;;;;;;;-10.49;99.82;98872.52;102469;1310;73960;-79
2021/12/26 07:09:25;;;;;;;67.80;37.80;;;;;;;-10.47;99.89;98873.05;102387;1310;69506;-79
2021/12/26 07:11:51;;;;;;;70.10;39.50;;;;;;;-10.46;99.90;98874.95;102470;1310;74696;-79
2021/12/26 07:14:18;;;;;;;70.00;38.30;;;;;;;-10.44;99.84;98881.00;102489;1310;60524;-80
2021/12/26 07:16:45;;;;;;;72.80;38.30;;;;;;;-10.43;99.85;98882.38;101694;1310;1003550;-78
2021/12/26 07:19:11;;;;;;;70.90;37.40;;;;;;;-10.43;99.87;98883.42;102341;1310;60506;-79
2021/12/26 07:21:38;;;;;;;68.90;38.60;;;;;;;-10.42;99.82;98886.52;102369;1314;70194;-78
2021/12/26 07:24:05;;;;;;;77.70;42.60;;;;;;;-10.42;99.69;98888.60;102375;1316;73521;-79
2021/12/26 07:26:32;;;;;;;77.00;43.10;;;;;;;-10.41;99.74;98886.02;102409;1310;61122;-78
2021/12/26 07:28:59;;;;;;;75.20;40.90;;;;;;;-10.39;99.79;98883.64;102421;1310;60935;-78
2021/12/26 07:31:26;;;;;;;75.20;41.70;;;;;;;-10.37;99.81;98883.67;101671;1316;1003738;-78
2021/12/26 07:33:53;;;;;;;82.80;46.50;;;;;;;-10.35;99.81;98884.72;102391;1310;69586;-78
2021/12/26 07:36:19;;;;;;;81.40;45.40;;;;;;;-10.32;99.94;98887.36;102368;1314;60402;-79
2021/12/26 07:38:46;;;;;;;79.70;45.70;;;;;;;-10.29;99.84;98892.20;101621;1316;1003196;-78
2021/12/26 07:41:12;;;;;;;88.20;45.10;;;;;;;-10.26;99.78;98896.00;101713;1310;1003752;-79
2021/12/26 07:43:39;;;;;;;71.60;41.30;;;;;;;-10.19;99.97;98899.54;102476;1316;74446;-79
2021/12/26 07:46:06;;;;;;;81.10;44.20;;;;;;;-10.11;99.98;98897.92;101710;1310;1003047;-79
2021/12/26 07:48:33;;;;;;;77.60;41.10;;;;;;;-10.03;99.89;98902.67;102362;1310;72813;-79
2021/12/26 07:50:59;;;;;;;80.90;44.50;;;;;;;-9.96;99.85;98908.77;102340;1310;60592;-80
2021/12/26 07:53:26;;;;;;;81.80;45.60;;;;;;;-9.89;99.83;98908.88;102469;1310;60891;-79
2021/12/26 07:55:52;;;;;;;83.50;46.80;;;;;;;-9.84;99.84;98906.36;102386;1310;75819;-80
2021/12/26 07:58:19;;;;;;;68.20;42.10;;;;;;;-9.76;99.81;98912.98;102448;1310;70487;-79
2021/12/26 08:00:45;;;;;;;83.00;45.90;;;;;;;-9.71;99.77;98911.50;102517;1310;60632;-79
2021/12/26 08:03:12;;;;;;;80.60;46.10;;;;;;;-9.66;99.79;98910.70;102416;1316;60510;-78
2021/12/26 08:05:39;;;;;;;76.10;43.60;;;;;;;-9.60;99.72;98911.64;102478;1314;61992;-79
2021/12/26 08:08:05;;;;;;;79.80;42.30;;;;;;;-9.56;99.71;98914.26;101658;1310;1003014;-80
2021/12/26 08:10:32;;;;;;;76.30;42.90;;;;;;;-9.52;99.81;98912.25;102332;1310;60572;-78
2021/12/26 08:12:59;;;;;;;91.10;47.60;;;;;;;-9.44;99.79;98912.52;102469;1310;73252;-79
2021/12/26 08:15:25;;;;;;;76.70;44.80;;;;;;;-9.37;99.79;98916.72;102634;1310;61417;-80
2021/12/26 08:17:52;;;;;;;79.40;43.00;;;;;;;-9.32;99.88;98917.13;102639;1310;60523;-78
2021/12/26 08:20:19;;;;;;;80.90;43.90;;;;;;;-9.26;99.88;98916.16;103146;1310;75991;-79
2021/12/26 08:22:45;;;;;;;81.10;47.30;;;;;;;-9.19;99.89;98917.43;102700;1313;1003764;-79
2021/12/26 08:25:12;;;;;;;76.20;42.80;;;;;;;-9.13;99.88;98915.09;102968;1310;1003581;-78
2021/12/26 08:27:39;;;;;;;92.30;46.50;;;;;;;-9.07;99.85;98911.02;103005;1317;60618;-79
2021/12/26 08:30:06;;;;;;;79.40;44.90;;;;;;;-8.99;99.80;98910.92;102503;1310;62808;-79
2021/12/26 08:32:36;;;;;;;85.70;46.70;;;;;;;-8.94;99.76;98905.64;102482;1316;74456;-79
2021/12/26 08:35:04;;;;;;;78.40;43.30;;;;;;;-8.88;99.79;98905.52;102468;1316;69270;-78
2021/12/26 08:37:31;;;;;;;86.90;48.00;;;;;;;-8.85;99.65;98905.54;101995;1319;73278;-79
2021/12/26 08:39:58;;;;;;;92.90;47.30;;;;;;;-8.81;99.69;98906.95;102419;1310;60752;-79
2021/12/26 08:42:24;;;;;;;76.60;45.90;;;;;;;-8.78;99.76;98905.27;100952;1310;1016026;-80
2021/12/26 08:44:52;;;;;;;78.40;42.70;;;;;;;-8.74;99.69;98909.44;102621;1310;74428;-80
2021/12/26 08:47:19;;;;;;;71.90;42.00;;;;;;;-8.69;99.62;98909.14;102501;1310;69798;-80
2021/12/26 08:49:46;;;;;;;78.10;42.40;;;;;;;-8.64;99.65;98910.20;102575;1310;73285;-79
2021/12/26 08:52:12;;;;;;;68.80;40.90;;;;;;;-8.58;99.78;98910.77;102728;1310;60574;-80
2021/12/26 08:54:40;;;;;;;67.10;38.10;;;;;;;-8.52;99.75;98907.90;104189;1310;60416;-80
2021/12/26 08:57:08;;;;;;;72.10;41.30;;;;;;;-8.47;99.60;98907.94;104096;1317;74352;-78
2021/12/26 08:59:37;;;;;;;71.70;38.50;;;;;;;-8.39;99.59;98904.88;102264;1310;164278;-79
2021/12/26 09:02:08;;;;;;;62.20;33.60;;;;;;;-8.32;99.60;98901.12;102559;1313;72947;-80
2021/12/26 09:04:37;;;;;;;70.80;37.50;;;;;;;-8.27;99.45;98900.64;102475;1310;60561;-79
2021/12/26 09:07:05;;;;;;;60.80;35.80;;;;;;;-8.23;99.35;98900.83;102491;1310;61236;-80
2021/12/26 09:09:33;;;;;;;66.10;37.00;;;;;;;-8.19;99.27;98901.90;102491;1310;74434;-79
2021/12/26 09:12:00;;;;;;;66.10;36.30;;;;;;;-8.14;99.22;98903.30;102037;1316;67548;-79
2021/12/26 09:14:31;;;;;;;67.10;38.60;;;;;;;-8.08;99.25;98906.09;102485;1317;73516;-78
2021/12/26 09:16:59;;;;;;;63.80;36.10;;;;;;;-8.03;99.30;98901.13;102514;1316;61128;-79
2021/12/26 09:19:28;;;;;;;66.90;38.40;;;;;;;-8.00;99.22;98900.62;102386;1310;60853;-78
2021/12/26 09:21:57;;;;;;;64.70;36.00;;;;;;;-7.93;99.22;98900.30;102201;1316;74233;-78
2021/12/26 09:24:24;;;;;;;64.60;34.60;;;;;;;-7.88;99.22;98899.30;102716;1310;70624;-79
2021/12/26 09:26:51;;;;;;;57.90;32.40;;;;;;;-7.84;99.14;98894.33;102537;1310;74215;-79
2021/12/26 09:29:17;;;;;;;56.70;33.30;;;;;;;-7.79;99.13;98893.84;102659;1310;60572;-78
2021/12/26 09:31:45;;;;;;;58.90;30.80;;;;;;;-7.75;99.15;98892.13;102627;1310;62264;-79
2021/12/26 09:34:13;;;;;;;57.10;31.90;;;;;;;-7.68;99.09;98896.82;102832;1316;74671;-79
2021/12/26 09:36:40;;;;;;;55.50;33.00;;;;;;;-7.61;99.07;98892.71;102749;1310;71010;-79
2021/12/26 09:39:07;;;;;;;65.90;34.40;;;;;;;-7.54;99.12;98889.29;102625;1316;73460;-81
2021/12/26 09:41:34;;;;;;;61.30;34.90;;;;;;;-7.48;99.07;98885.00;101992;1313;1003100;-78
2021/12/26 09:44:01;;;;;;;61.20;33.60;;;;;;;-7.43;99.10;98884.15;102728;1313;61983;-81
2021/12/26 09:46:30;;;;;;;64.30;35.30;;;;;;;-7.35;99.06;98880.55;102928;1310;75598;-79
2021/12/26 09:48:57;;;;;;;61.00;33.50;;;;;;;-7.27;99.09;98878.50;102953;1310;69114;-80
2021/12/26 09:51:25;;;;;;;62.60;34.20;;;;;;;-7.21;99.09;98875.57;102887;1316;72244;-79
2021/12/26 09:53:52;;;;;;;56.90;32.30;;;;;;;-7.17;98.78;98871.80;103013;1310;60464;-80
2021/12/26 09:56:19;;;;;;;57.90;32.40;;;;;;;-7.14;98.66;98865.92;103033;1313;62084;-78
2021/12/26 09:59:00;;;;;;;99.90;46.20;;;;;;;-7.13;98.42;98864.20;103176;1310;74503;-78
2021/12/26 10:01:32;;;;;;;59.70;33.70;;;;;;;-7.09;98.49;98866.46;102868;1317;69200;-79
2021/12/26 10:04:02;;;;;;;63.70;33.90;;;;;;;-7.05;98.32;98870.61;104169;1310;74497;-79
2021/12/26 10:06:33;;;;;;;63.10;35.10;;;;;;;-7.01;98.16;98869.23;103816;1310;1002795;-79
2021/12/26 10:09:05;;;;;;;58.80;33.20;;;;;;;-6.97;98.21;98866.12;104665;1310;61363;-80
2021/12/26 10:11:34;;;;;;;58.60;32.90;;;;;;;-6.89;98.26;98864.75;104720;1310;75509;-78
2021/12/26 10:14:04;;;;;;;63.70;32.20;;;;;;;-6.83;98.17;98865.61;104811;1316;69702;-79
2021/12/26 10:16:35;;;;;;;;;;;;;;;-6.78;98.09;98865.45;105051;1316;73408;-79
2021/12/26 10:19:04;;;;;;;49.50;28.00;;;;;;;-6.73;97.99;98868.90;104589;1313;60616;-80
2021/12/26 10:22:02;;;;;;;81.50;44.00;;;;;;;-6.69;97.88;98867.87;105226;1310;61279;-79
2021/12/26 10:24:35;;;;;;;59.10;36.60;;;;;;;-6.61;98.04;98864.40;104193;1319;74413;-80
2021/12/26 10:27:22;;;;;;;52.40;31.30;;;;;;;-6.50;98.09;98861.64;103043;1320;69749;-80
2021/12/26 10:29:51;;;;;;;66.30;44.30;;;;;;;-6.36;98.18;98861.80;102053;1319;72351;-79
2021/12/26 10:32:24;;;;;;;53.10;33.70;;;;;;;-6.26;98.09;98863.15;101959;1319;61095;-78
2021/12/26 10:34:54;;;;;;;52.50;30.30;;;;;;;-6.18;97.93;98867.30;101954;1319;61918;-80
2021/12/26 10:37:28;;;;;;;50.60;30.40;;;;;;;-6.13;97.66;98866.60;102167;1319;75454;-78
2021/12/26 10:39:59;;;;;;;48.80;27.00;;;;;;;-6.10;97.42;98864.52;102131;1319;69130;-78
2021/12/26 10:42:29;;;;;;;51.70;28.10;;;;;;;-6.04;97.50;98860.71;101971;1322;73453;-79
2021/12/26 10:44:59;;;;;;;54.20;30.10;;;;;;;-5.96;97.52;98857.90;101934;1317;60543;-79
2021/12/26 10:47:28;;;;;;;50.30;26.60;;;;;;;-5.92;97.18;98856.48;102005;1319;60628;-77
2021/12/26 10:49:58;;;;;;;46.60;26.20;;;;;;;-5.92;96.75;98851.98;101894;1317;73133;-79
2021/12/26 10:52:31;;;;;;;46.80;25.30;;;;;;;-5.91;96.33;98852.50;101900;1319;69799;-79
2021/12/26 10:55:02;;;;;;;49.20;25.30;;;;;;;-5.94;95.96;98851.64;101920;1319;72709;-79
2021/12/26 10:57:33;;;;;;;51.80;28.20;;;;;;;-5.97;95.89;98854.10;101833;1319;60773;-79
2021/12/26 11:00:06;;;;;;;47.80;26.60;;;;;;;-5.94;95.96;98853.93;101828;1317;62723;-80
2021/12/26 11:02:34;;;;;;;47.00;28.20;;;;;;;-5.91;95.70;98853.36;102292;1316;74573;-79
2021/12/26 11:05:07;;;;;;;50.80;26.80;;;;;;;-5.90;95.94;98859.06;102632;1310;69843;-79
2021/12/26 11:07:40;;;;;;;45.40;23.90;;;;;;;-5.86;95.71;98856.28;102358;1314;73370;-78
2021/12/26 11:10:13;;;;;;;48.50;27.10;;;;;;;-5.81;95.48;98856.10;102059;1316;60593;-79
2021/12/26 11:12:45;;;;;;;54.50;29.90;;;;;;;-5.78;95.54;98850.55;102388;1310;62830;-79